sensor_id;sensor_type;location;lat;lon;timestamp;P1;durP1;ratioP1;P2;durP2;ratioP2
42196;SDS011;27866;48.146;17.098;2023-04-15T00:00:41;4.45;;;3.08;;
42196;SDS011;27866;48.146;17.098;2023-04-15T00:04:52;4.50;;;3.00;;
42196;SDS011;27866;48.146;17.098;2023-04-15T00:09:03;4.25;;;2.90;;
42196;SDS011;27866;48.146;17.098;2023-04-15T00:13:14;3.35;;;2.65;;
42196;SDS011;27866;48.146;17.098;2023-04-15T00:17:26;4.57;;;3.30;;
42196;SDS011;27866;48.146;17.098;2023-04-15T00:21:37;5.35;;;3.55;;
42196;SDS011;27866;48.146;17.098;2023-04-15T00:25:48;5.45;;;4.03;;
42196;SDS011;27866;48.146;17.098;2023-04-15T00:30:00;5.07;;;3.67;;
42196;SDS011;27866;48.146;17.098;2023-04-15T00:34:11;6.13;;;4.10;;
42196;SDS011;27866;48.146;17.098;2023-04-15T00:38:23;5.50;;;3.83;;
42196;SDS011;27866;48.146;17.098;2023-04-15T00:42:34;8.70;;;5.38;;
42196;SDS011;27866;48.146;17.098;2023-04-15T00:46:46;8.93;;;6.40;;
42196;SDS011;27866;48.146;17.098;2023-04-15T00:51:00;9.43;;;7.15;;
42196;SDS011;27866;48.146;17.098;2023-04-15T00:55:11;10.10;;;7.47;;
42196;SDS011;27866;48.146;17.098;2023-04-15T00:59:23;10.57;;;7.35;;
42196;SDS011;27866;48.146;17.098;2023-04-15T01:03:34;11.18;;;7.78;;
42196;SDS011;27866;48.146;17.098;2023-04-15T01:07:46;10.35;;;6.40;;
42196;SDS011;27866;48.146;17.098;2023-04-15T01:11:58;9.85;;;7.20;;
42196;SDS011;27866;48.146;17.098;2023-04-15T01:16:09;10.77;;;7.82;;
42196;SDS011;27866;48.146;17.098;2023-04-15T01:20:21;12.48;;;8.13;;
42196;SDS011;27866;48.146;17.098;2023-04-15T01:24:32;13.77;;;8.15;;
42196;SDS011;27866;48.146;17.098;2023-04-15T01:28:45;10.18;;;7.35;;
42196;SDS011;27866;48.146;17.098;2023-04-15T01:32:56;10.18;;;7.40;;
42196;SDS011;27866;48.146;17.098;2023-04-15T01:37:07;10.15;;;7.47;;
42196;SDS011;27866;48.146;17.098;2023-04-15T01:41:25;10.82;;;7.47;;
42196;SDS011;27866;48.146;17.098;2023-04-15T01:45:37;12.63;;;7.60;;
42196;SDS011;27866;48.146;17.098;2023-04-15T01:49:48;11.48;;;8.07;;
42196;SDS011;27866;48.146;17.098;2023-04-15T01:53:59;12.27;;;8.48;;
42196;SDS011;27866;48.146;17.098;2023-04-15T01:58:10;14.68;;;9.88;;
42196;SDS011;27866;48.146;17.098;2023-04-15T02:02:22;17.73;;;10.27;;
42196;SDS011;27866;48.146;17.098;2023-04-15T02:06:33;16.50;;;9.90;;
42196;SDS011;27866;48.146;17.098;2023-04-15T02:10:45;19.70;;;11.50;;
42196;SDS011;27866;48.146;17.098;2023-04-15T02:14:56;17.73;;;12.13;;
42196;SDS011;27866;48.146;17.098;2023-04-15T02:19:08;18.25;;;12.82;;
42196;SDS011;27866;48.146;17.098;2023-04-15T02:23:21;21.58;;;13.55;;
42196;SDS011;27866;48.146;17.098;2023-04-15T02:27:32;20.73;;;15.02;;
42196;SDS011;27866;48.146;17.098;2023-04-15T02:31:45;24.92;;;17.38;;
42196;SDS011;27866;48.146;17.098;2023-04-15T02:35:57;20.90;;;14.55;;
42196;SDS011;27866;48.146;17.098;2023-04-15T02:40:10;22.58;;;15.80;;
42196;SDS011;27866;48.146;17.098;2023-04-15T02:44:23;19.58;;;13.75;;
42196;SDS011;27866;48.146;17.098;2023-04-15T02:48:38;19.65;;;13.57;;
42196;SDS011;27866;48.146;17.098;2023-04-15T02:52:49;17.88;;;11.15;;
42196;SDS011;27866;48.146;17.098;2023-04-15T02:57:01;22.05;;;12.05;;
42196;SDS011;27866;48.146;17.098;2023-04-15T03:01:15;19.95;;;10.60;;
42196;SDS011;27866;48.146;17.098;2023-04-15T03:05:26;16.88;;;10.13;;
42196;SDS011;27866;48.146;17.098;2023-04-15T03:09:38;22.63;;;11.10;;
42196;SDS011;27866;48.146;17.098;2023-04-15T03:13:51;19.08;;;11.10;;
42196;SDS011;27866;48.146;17.098;2023-04-15T03:18:11;19.38;;;11.48;;
42196;SDS011;27866;48.146;17.098;2023-04-15T03:22:24;20.90;;;11.82;;
42196;SDS011;27866;48.146;17.098;2023-04-15T03:26:37;21.13;;;11.43;;
42196;SDS011;27866;48.146;17.098;2023-04-15T03:30:55;18.80;;;10.90;;
42196;SDS011;27866;48.146;17.098;2023-04-15T03:35:06;18.15;;;11.27;;
42196;SDS011;27866;48.146;17.098;2023-04-15T03:39:18;17.42;;;10.50;;
42196;SDS011;27866;48.146;17.098;2023-04-15T03:43:30;19.48;;;11.60;;
42196;SDS011;27866;48.146;17.098;2023-04-15T03:47:41;21.45;;;10.80;;
42196;SDS011;27866;48.146;17.098;2023-04-15T03:51:52;23.42;;;12.23;;
42196;SDS011;27866;48.146;17.098;2023-04-15T03:56:04;18.85;;;11.23;;
42196;SDS011;27866;48.146;17.098;2023-04-15T04:00:15;17.85;;;10.85;;
42196;SDS011;27866;48.146;17.098;2023-04-15T04:04:26;17.15;;;10.82;;
42196;SDS011;27866;48.146;17.098;2023-04-15T04:08:38;16.52;;;10.82;;
42196;SDS011;27866;48.146;17.098;2023-04-15T04:12:49;16.75;;;10.68;;
42196;SDS011;27866;48.146;17.098;2023-04-15T04:17:00;18.83;;;11.52;;
42196;SDS011;27866;48.146;17.098;2023-04-15T04:21:11;18.30;;;10.13;;
42196;SDS011;27866;48.146;17.098;2023-04-15T04:25:22;15.70;;;9.68;;
42196;SDS011;27866;48.146;17.098;2023-04-15T04:29:34;16.27;;;9.90;;
42196;SDS011;27866;48.146;17.098;2023-04-15T04:33:45;15.57;;;9.77;;
42196;SDS011;27866;48.146;17.098;2023-04-15T04:37:56;17.60;;;9.30;;
42196;SDS011;27866;48.146;17.098;2023-04-15T04:42:07;14.60;;;8.82;;
42196;SDS011;27866;48.146;17.098;2023-04-15T04:46:19;15.65;;;9.23;;
42196;SDS011;27866;48.146;17.098;2023-04-15T04:50:31;14.13;;;9.20;;
42196;SDS011;27866;48.146;17.098;2023-04-15T04:54:42;12.75;;;7.90;;
42196;SDS011;27866;48.146;17.098;2023-04-15T04:58:53;13.52;;;8.65;;
42196;SDS011;27866;48.146;17.098;2023-04-15T05:03:05;14.10;;;8.38;;
42196;SDS011;27866;48.146;17.098;2023-04-15T05:07:16;13.20;;;8.13;;
42196;SDS011;27866;48.146;17.098;2023-04-15T05:11:27;11.43;;;7.55;;
42196;SDS011;27866;48.146;17.098;2023-04-15T05:15:39;12.02;;;7.35;;
42196;SDS011;27866;48.146;17.098;2023-04-15T05:19:52;12.95;;;8.32;;
42196;SDS011;27866;48.146;17.098;2023-04-15T05:24:03;10.07;;;6.55;;
42196;SDS011;27866;48.146;17.098;2023-04-15T05:28:15;11.02;;;7.45;;
42196;SDS011;27866;48.146;17.098;2023-04-15T05:32:26;10.82;;;7.22;;
42196;SDS011;27866;48.146;17.098;2023-04-15T05:36:38;11.30;;;7.10;;
42196;SDS011;27866;48.146;17.098;2023-04-15T05:40:49;11.27;;;6.95;;
42196;SDS011;27866;48.146;17.098;2023-04-15T05:45:00;10.43;;;6.47;;
42196;SDS011;27866;48.146;17.098;2023-04-15T05:49:14;8.77;;;5.97;;
42196;SDS011;27866;48.146;17.098;2023-04-15T05:53:26;8.85;;;6.45;;
42196;SDS011;27866;48.146;17.098;2023-04-15T05:57:37;8.52;;;5.93;;
42196;SDS011;27866;48.146;17.098;2023-04-15T06:01:48;7.90;;;5.55;;
42196;SDS011;27866;48.146;17.098;2023-04-15T06:06:01;6.90;;;5.15;;
42196;SDS011;27866;48.146;17.098;2023-04-15T06:10:13;7.18;;;5.15;;
42196;SDS011;27866;48.146;17.098;2023-04-15T06:14:24;5.68;;;4.63;;
42196;SDS011;27866;48.146;17.098;2023-04-15T06:18:35;5.43;;;4.00;;
42196;SDS011;27866;48.146;17.098;2023-04-15T06:22:46;5.45;;;4.35;;
42196;SDS011;27866;48.146;17.098;2023-04-15T06:26:57;5.88;;;3.85;;
42196;SDS011;27866;48.146;17.098;2023-04-15T06:31:09;4.55;;;3.88;;
42196;SDS011;27866;48.146;17.098;2023-04-15T06:35:20;5.85;;;3.45;;
42196;SDS011;27866;48.146;17.098;2023-04-15T06:39:31;3.80;;;3.35;;
42196;SDS011;27866;48.146;17.098;2023-04-15T06:43:43;3.67;;;3.00;;
42196;SDS011;27866;48.146;17.098;2023-04-15T06:47:54;3.92;;;3.20;;
42196;SDS011;27866;48.146;17.098;2023-04-15T06:52:05;4.07;;;2.92;;
42196;SDS011;27866;48.146;17.098;2023-04-15T06:56:16;4.40;;;2.45;;
42196;SDS011;27866;48.146;17.098;2023-04-15T07:00:27;2.83;;;2.25;;
42196;SDS011;27866;48.146;17.098;2023-04-15T07:04:39;2.55;;;2.17;;
42196;SDS011;27866;48.146;17.098;2023-04-15T07:08:51;2.33;;;1.90;;
42196;SDS011;27866;48.146;17.098;2023-04-15T07:13:03;1.85;;;1.60;;
42196;SDS011;27866;48.146;17.098;2023-04-15T07:17:15;2.47;;;1.80;;
42196;SDS011;27866;48.146;17.098;2023-04-15T07:21:26;2.70;;;1.88;;
42196;SDS011;27866;48.146;17.098;2023-04-15T07:25:37;2.60;;;2.10;;
42196;SDS011;27866;48.146;17.098;2023-04-15T07:29:48;3.10;;;2.60;;
42196;SDS011;27866;48.146;17.098;2023-04-15T07:34:01;3.10;;;2.50;;
42196;SDS011;27866;48.146;17.098;2023-04-15T07:38:14;3.65;;;2.30;;
42196;SDS011;27866;48.146;17.098;2023-04-15T07:42:26;2.83;;;2.28;;
42196;SDS011;27866;48.146;17.098;2023-04-15T07:46:38;3.38;;;2.50;;
42196;SDS011;27866;48.146;17.098;2023-04-15T07:50:49;4.03;;;2.58;;
42196;SDS011;27866;48.146;17.098;2023-04-15T07:55:01;2.92;;;2.30;;
42196;SDS011;27866;48.146;17.098;2023-04-15T07:59:12;3.20;;;2.33;;
42196;SDS011;27866;48.146;17.098;2023-04-15T08:03:27;2.65;;;2.25;;
42196;SDS011;27866;48.146;17.098;2023-04-15T08:07:38;3.60;;;2.03;;
42196;SDS011;27866;48.146;17.098;2023-04-15T08:11:49;4.38;;;2.00;;
42196;SDS011;27866;48.146;17.098;2023-04-15T08:16:15;5.13;;;1.83;;
42196;SDS011;27866;48.146;17.098;2023-04-15T08:20:34;3.17;;;2.00;;
42196;SDS011;27866;48.146;17.098;2023-04-15T08:24:45;2.20;;;1.83;;
42196;SDS011;27866;48.146;17.098;2023-04-15T08:28:57;7.10;;;1.83;;
42196;SDS011;27866;48.146;17.098;2023-04-15T08:33:08;3.10;;;1.90;;
42196;SDS011;27866;48.146;17.098;2023-04-15T08:37:19;1.60;;;1.38;;
42196;SDS011;27866;48.146;17.098;2023-04-15T08:41:39;3.00;;;1.90;;
42196;SDS011;27866;48.146;17.098;2023-04-15T08:46:01;2.10;;;1.55;;
42196;SDS011;27866;48.146;17.098;2023-04-15T08:50:13;2.22;;;1.63;;
42196;SDS011;27866;48.146;17.098;2023-04-15T08:54:26;5.28;;;1.67;;
42196;SDS011;27866;48.146;17.098;2023-04-15T08:58:38;2.00;;;1.40;;
42196;SDS011;27866;48.146;17.098;2023-04-15T09:02:49;2.38;;;1.35;;
42196;SDS011;27866;48.146;17.098;2023-04-15T09:07:00;1.85;;;1.45;;
42196;SDS011;27866;48.146;17.098;2023-04-15T09:11:12;3.63;;;1.80;;
42196;SDS011;27866;48.146;17.098;2023-04-15T09:15:24;1.90;;;1.30;;
42196;SDS011;27866;48.146;17.098;2023-04-15T09:19:39;3.00;;;1.58;;
42196;SDS011;27866;48.146;17.098;2023-04-15T09:23:57;1.35;;;1.10;;
42196;SDS011;27866;48.146;17.098;2023-04-15T09:28:10;1.38;;;1.00;;
42196;SDS011;27866;48.146;17.098;2023-04-15T09:32:22;1.60;;;1.15;;
42196;SDS011;27866;48.146;17.098;2023-04-15T09:36:50;1.20;;;1.10;;
42196;SDS011;27866;48.146;17.098;2023-04-15T09:41:09;3.13;;;1.23;;
42196;SDS011;27866;48.146;17.098;2023-04-15T09:45:29;1.35;;;1.10;;
42196;SDS011;27866;48.146;17.098;2023-04-15T09:49:53;1.67;;;1.10;;
42196;SDS011;27866;48.146;17.098;2023-04-15T09:54:06;2.65;;;1.20;;
42196;SDS011;27866;48.146;17.098;2023-04-15T09:58:18;1.35;;;1.08;;
42196;SDS011;27866;48.146;17.098;2023-04-15T10:02:31;3.03;;;1.23;;
42196;SDS011;27866;48.146;17.098;2023-04-15T10:06:42;1.23;;;0.90;;
42196;SDS011;27866;48.146;17.098;2023-04-15T10:10:54;3.53;;;1.15;;
42196;SDS011;27866;48.146;17.098;2023-04-15T10:15:06;1.85;;;1.23;;
42196;SDS011;27866;48.146;17.098;2023-04-15T10:19:26;1.85;;;1.20;;
42196;SDS011;27866;48.146;17.098;2023-04-15T10:23:40;1.40;;;1.30;;
42196;SDS011;27866;48.146;17.098;2023-04-15T10:27:52;1.60;;;1.17;;
42196;SDS011;27866;48.146;17.098;2023-04-15T10:32:05;1.50;;;1.20;;
42196;SDS011;27866;48.146;17.098;2023-04-15T10:36:17;1.15;;;1.00;;
42196;SDS011;27866;48.146;17.098;2023-04-15T10:40:30;2.50;;;1.38;;
42196;SDS011;27866;48.146;17.098;2023-04-15T10:44:43;1.52;;;1.30;;
42196;SDS011;27866;48.146;17.098;2023-04-15T10:48:58;1.38;;;1.10;;
42196;SDS011;27866;48.146;17.098;2023-04-15T10:53:27;1.48;;;1.17;;
42196;SDS011;27866;48.146;17.098;2023-04-15T10:57:41;1.02;;;0.93;;
42196;SDS011;27866;48.146;17.098;2023-04-15T11:01:54;1.60;;;1.20;;
42196;SDS011;27866;48.146;17.098;2023-04-15T11:06:10;1.23;;;1.10;;
42196;SDS011;27866;48.146;17.098;2023-04-15T11:14:39;1.08;;;0.90;;
42196;SDS011;27866;48.146;17.098;2023-04-15T11:18:53;0.82;;;0.80;;
42196;SDS011;27866;48.146;17.098;2023-04-15T11:23:06;0.95;;;0.90;;
42196;SDS011;27866;48.146;17.098;2023-04-15T11:27:19;0.80;;;0.70;;
42196;SDS011;27866;48.146;17.098;2023-04-15T11:31:33;0.60;;;0.60;;
42196;SDS011;27866;48.146;17.098;2023-04-15T11:35:45;0.75;;;0.70;;
42196;SDS011;27866;48.146;17.098;2023-04-15T11:39:56;1.13;;;0.98;;
42196;SDS011;27866;48.146;17.098;2023-04-15T11:44:17;1.00;;;0.90;;
42196;SDS011;27866;48.146;17.098;2023-04-15T11:48:29;0.70;;;0.70;;
42196;SDS011;27866;48.146;17.098;2023-04-15T11:52:58;1.13;;;0.90;;
42196;SDS011;27866;48.146;17.098;2023-04-15T11:57:12;0.70;;;0.70;;
42196;SDS011;27866;48.146;17.098;2023-04-15T12:01:36;0.82;;;0.80;;
42196;SDS011;27866;48.146;17.098;2023-04-15T12:06:03;0.90;;;0.90;;
42196;SDS011;27866;48.146;17.098;2023-04-15T12:14:41;2.00;;;0.80;;
42196;SDS011;27866;48.146;17.098;2023-04-15T12:18:54;0.80;;;0.80;;
42196;SDS011;27866;48.146;17.098;2023-04-15T12:23:10;0.80;;;0.80;;
42196;SDS011;27866;48.146;17.098;2023-04-15T12:27:24;1.38;;;0.90;;
42196;SDS011;27866;48.146;17.098;2023-04-15T12:31:42;0.80;;;0.80;;
42196;SDS011;27866;48.146;17.098;2023-04-15T12:36:01;1.15;;;1.02;;
42196;SDS011;27866;48.146;17.098;2023-04-15T12:40:13;1.00;;;0.90;;
42196;SDS011;27866;48.146;17.098;2023-04-15T12:44:25;1.58;;;0.85;;
42196;SDS011;27866;48.146;17.098;2023-04-15T12:48:38;0.70;;;0.70;;
42196;SDS011;27866;48.146;17.098;2023-04-15T12:52:50;1.23;;;0.70;;
42196;SDS011;27866;48.146;17.098;2023-04-15T12:57:02;1.30;;;0.80;;
42196;SDS011;27866;48.146;17.098;2023-04-15T13:01:13;1.70;;;1.00;;
42196;SDS011;27866;48.146;17.098;2023-04-15T13:05:25;0.80;;;0.80;;
42196;SDS011;27866;48.146;17.098;2023-04-15T13:09:36;1.10;;;1.00;;
42196;SDS011;27866;48.146;17.098;2023-04-15T13:13:48;0.55;;;0.55;;
42196;SDS011;27866;48.146;17.098;2023-04-15T13:18:02;1.00;;;0.60;;
42196;SDS011;27866;48.146;17.098;2023-04-15T13:22:16;0.68;;;0.68;;
42196;SDS011;27866;48.146;17.098;2023-04-15T13:26:28;0.70;;;0.70;;
42196;SDS011;27866;48.146;17.098;2023-04-15T13:30:40;0.60;;;0.60;;
42196;SDS011;27866;48.146;17.098;2023-04-15T13:34:53;1.05;;;0.80;;
42196;SDS011;27866;48.146;17.098;2023-04-15T13:39:05;2.45;;;0.70;;
42196;SDS011;27866;48.146;17.098;2023-04-15T13:43:16;0.60;;;0.60;;
42196;SDS011;27866;48.146;17.098;2023-04-15T13:47:28;0.95;;;0.90;;
42196;SDS011;27866;48.146;17.098;2023-04-15T13:51:39;0.50;;;0.50;;
42196;SDS011;27866;48.146;17.098;2023-04-15T13:55:51;1.13;;;0.82;;
42196;SDS011;27866;48.146;17.098;2023-04-15T14:00:02;3.40;;;1.23;;
42196;SDS011;27866;48.146;17.098;2023-04-15T14:04:17;1.15;;;0.80;;
42196;SDS011;27866;48.146;17.098;2023-04-15T14:08:28;3.72;;;0.90;;
42196;SDS011;27866;48.146;17.098;2023-04-15T14:12:40;1.20;;;1.00;;
42196;SDS011;27866;48.146;17.098;2023-04-15T14:16:54;2.03;;;1.00;;
42196;SDS011;27866;48.146;17.098;2023-04-15T14:21:05;2.80;;;1.00;;
42196;SDS011;27866;48.146;17.098;2023-04-15T14:25:17;1.92;;;1.20;;
42196;SDS011;27866;48.146;17.098;2023-04-15T14:29:28;1.48;;;1.25;;
42196;SDS011;27866;48.146;17.098;2023-04-15T14:33:40;1.88;;;0.80;;
42196;SDS011;27866;48.146;17.098;2023-04-15T14:37:52;1.23;;;0.70;;
42196;SDS011;27866;48.146;17.098;2023-04-15T14:42:03;1.63;;;1.00;;
42196;SDS011;27866;48.146;17.098;2023-04-15T14:46:15;2.78;;;1.08;;
42196;SDS011;27866;48.146;17.098;2023-04-15T14:50:26;1.77;;;1.08;;
42196;SDS011;27866;48.146;17.098;2023-04-15T14:54:38;1.70;;;1.17;;
42196;SDS011;27866;48.146;17.098;2023-04-15T14:58:49;1.50;;;1.20;;
42196;SDS011;27866;48.146;17.098;2023-04-15T15:03:02;2.35;;;1.42;;
42196;SDS011;27866;48.146;17.098;2023-04-15T15:07:21;2.60;;;1.50;;
42196;SDS011;27866;48.146;17.098;2023-04-15T15:11:33;1.90;;;1.20;;
42196;SDS011;27866;48.146;17.098;2023-04-15T15:15:44;2.20;;;1.55;;
42196;SDS011;27866;48.146;17.098;2023-04-15T15:19:58;3.53;;;1.50;;
42196;SDS011;27866;48.146;17.098;2023-04-15T15:24:09;1.40;;;1.30;;
42196;SDS011;27866;48.146;17.098;2023-04-15T15:28:21;2.10;;;1.35;;
42196;SDS011;27866;48.146;17.098;2023-04-15T15:32:33;4.45;;;2.97;;
42196;SDS011;27866;48.146;17.098;2023-04-15T15:36:44;1.98;;;1.58;;
42196;SDS011;27866;48.146;17.098;2023-04-15T15:40:55;4.45;;;1.42;;
42196;SDS011;27866;48.146;17.098;2023-04-15T15:45:07;2.20;;;1.33;;
42196;SDS011;27866;48.146;17.098;2023-04-15T15:49:18;1.23;;;0.90;;
42196;SDS011;27866;48.146;17.098;2023-04-15T15:53:29;1.60;;;1.00;;
42196;SDS011;27866;48.146;17.098;2023-04-15T15:57:41;2.03;;;1.17;;
42196;SDS011;27866;48.146;17.098;2023-04-15T16:01:52;1.40;;;1.20;;
42196;SDS011;27866;48.146;17.098;2023-04-15T16:06:03;1.20;;;1.00;;
42196;SDS011;27866;48.146;17.098;2023-04-15T16:10:15;0.80;;;0.80;;
42196;SDS011;27866;48.146;17.098;2023-04-15T16:14:26;0.80;;;0.80;;
42196;SDS011;27866;48.146;17.098;2023-04-15T16:18:37;2.72;;;1.10;;
42196;SDS011;27866;48.146;17.098;2023-04-15T16:22:49;1.15;;;1.00;;
42196;SDS011;27866;48.146;17.098;2023-04-15T16:27:00;1.13;;;0.93;;
42196;SDS011;27866;48.146;17.098;2023-04-15T16:31:12;2.17;;;1.00;;
42196;SDS011;27866;48.146;17.098;2023-04-15T16:35:23;0.90;;;0.80;;
42196;SDS011;27866;48.146;17.098;2023-04-15T16:39:35;1.05;;;0.70;;
42196;SDS011;27866;48.146;17.098;2023-04-15T16:43:46;1.95;;;1.20;;
42196;SDS011;27866;48.146;17.098;2023-04-15T16:47:58;3.88;;;1.27;;
42196;SDS011;27866;48.146;17.098;2023-04-15T16:52:09;1.92;;;1.17;;
42196;SDS011;27866;48.146;17.098;2023-04-15T16:56:20;1.40;;;1.10;;
42196;SDS011;27866;48.146;17.098;2023-04-15T17:00:31;1.20;;;1.00;;
42196;SDS011;27866;48.146;17.098;2023-04-15T17:04:46;2.47;;;1.10;;
42196;SDS011;27866;48.146;17.098;2023-04-15T17:08:57;5.03;;;2.10;;
42196;SDS011;27866;48.146;17.098;2023-04-15T17:13:08;4.60;;;2.70;;
42196;SDS011;27866;48.146;17.098;2023-04-15T17:17:20;3.20;;;1.40;;
42196;SDS011;27866;48.146;17.098;2023-04-15T17:21:32;3.05;;;1.63;;
42196;SDS011;27866;48.146;17.098;2023-04-15T17:25:43;2.35;;;1.40;;
42196;SDS011;27866;48.146;17.098;2023-04-15T17:29:55;2.90;;;1.50;;
42196;SDS011;27866;48.146;17.098;2023-04-15T17:34:07;2.08;;;1.40;;
42196;SDS011;27866;48.146;17.098;2023-04-15T17:38:18;2.05;;;1.30;;
42196;SDS011;27866;48.146;17.098;2023-04-15T17:42:29;3.25;;;1.23;;
42196;SDS011;27866;48.146;17.098;2023-04-15T17:46:41;2.20;;;1.40;;
42196;SDS011;27866;48.146;17.098;2023-04-15T17:50:52;1.65;;;1.23;;
42196;SDS011;27866;48.146;17.098;2023-04-15T17:55:03;2.15;;;1.40;;
42196;SDS011;27866;48.146;17.098;2023-04-15T17:59:16;2.70;;;1.50;;
42196;SDS011;27866;48.146;17.098;2023-04-15T18:03:27;2.38;;;1.40;;
42196;SDS011;27866;48.146;17.098;2023-04-15T18:07:39;1.30;;;1.10;;
42196;SDS011;27866;48.146;17.098;2023-04-15T18:11:50;1.83;;;1.30;;
42196;SDS011;27866;48.146;17.098;2023-04-15T18:16:01;1.75;;;1.35;;
42196;SDS011;27866;48.146;17.098;2023-04-15T18:20:13;2.15;;;1.40;;
42196;SDS011;27866;48.146;17.098;2023-04-15T18:24:25;3.85;;;1.70;;
42196;SDS011;27866;48.146;17.098;2023-04-15T18:28:37;2.10;;;1.45;;
42196;SDS011;27866;48.146;17.098;2023-04-15T18:32:49;2.60;;;1.70;;
42196;SDS011;27866;48.146;17.098;2023-04-15T18:37:00;2.60;;;1.73;;
42196;SDS011;27866;48.146;17.098;2023-04-15T18:41:12;3.65;;;2.10;;
42196;SDS011;27866;48.146;17.098;2023-04-15T18:45:23;4.30;;;2.30;;
42196;SDS011;27866;48.146;17.098;2023-04-15T18:49:35;5.88;;;2.25;;
42196;SDS011;27866;48.146;17.098;2023-04-15T18:53:46;3.28;;;2.10;;
42196;SDS011;27866;48.146;17.098;2023-04-15T18:57:57;3.45;;;2.10;;
42196;SDS011;27866;48.146;17.098;2023-04-15T19:02:08;2.25;;;1.75;;
42196;SDS011;27866;48.146;17.098;2023-04-15T19:06:20;1.98;;;1.63;;
42196;SDS011;27866;48.146;17.098;2023-04-15T19:10:32;3.97;;;2.03;;
42196;SDS011;27866;48.146;17.098;2023-04-15T19:14:44;2.40;;;1.90;;
42196;SDS011;27866;48.146;17.098;2023-04-15T19:18:56;2.33;;;1.85;;
42196;SDS011;27866;48.146;17.098;2023-04-15T19:23:07;5.55;;;4.75;;
42196;SDS011;27866;48.146;17.098;2023-04-15T19:27:20;5.00;;;2.58;;
42196;SDS011;27866;48.146;17.098;2023-04-15T19:31:31;3.72;;;2.50;;
42196;SDS011;27866;48.146;17.098;2023-04-15T19:35:42;4.60;;;3.30;;
42196;SDS011;27866;48.146;17.098;2023-04-15T19:39:54;4.38;;;3.25;;
42196;SDS011;27866;48.146;17.098;2023-04-15T19:44:06;4.78;;;2.80;;
42196;SDS011;27866;48.146;17.098;2023-04-15T19:48:17;5.55;;;3.30;;
42196;SDS011;27866;48.146;17.098;2023-04-15T19:52:29;8.00;;;4.15;;
42196;SDS011;27866;48.146;17.098;2023-04-15T19:56:40;10.15;;;5.68;;
42196;SDS011;27866;48.146;17.098;2023-04-15T20:00:51;9.60;;;4.93;;
42196;SDS011;27866;48.146;17.098;2023-04-15T20:05:03;6.43;;;4.07;;
42196;SDS011;27866;48.146;17.098;2023-04-15T20:09:18;4.95;;;3.25;;
42196;SDS011;27866;48.146;17.098;2023-04-15T20:13:30;9.48;;;4.25;;
42196;SDS011;27866;48.146;17.098;2023-04-15T20:17:42;6.22;;;4.40;;
42196;SDS011;27866;48.146;17.098;2023-04-15T20:21:53;5.72;;;3.50;;
42196;SDS011;27866;48.146;17.098;2023-04-15T20:26:05;5.00;;;3.45;;
42196;SDS011;27866;48.146;17.098;2023-04-15T20:30:17;6.13;;;4.32;;
42196;SDS011;27866;48.146;17.098;2023-04-15T20:34:28;5.40;;;4.22;;
42196;SDS011;27866;48.146;17.098;2023-04-15T20:38:40;8.35;;;4.72;;
42196;SDS011;27866;48.146;17.098;2023-04-15T20:42:51;6.65;;;5.05;;
42196;SDS011;27866;48.146;17.098;2023-04-15T20:47:03;7.07;;;4.38;;
42196;SDS011;27866;48.146;17.098;2023-04-15T20:51:15;5.78;;;4.10;;
42196;SDS011;27866;48.146;17.098;2023-04-15T20:55:26;3.90;;;3.35;;
42196;SDS011;27866;48.146;17.098;2023-04-15T20:59:38;4.35;;;3.53;;
42196;SDS011;27866;48.146;17.098;2023-04-15T21:03:49;5.40;;;3.50;;
42196;SDS011;27866;48.146;17.098;2023-04-15T21:08:00;3.60;;;2.80;;
42196;SDS011;27866;48.146;17.098;2023-04-15T21:12:12;4.40;;;3.08;;
42196;SDS011;27866;48.146;17.098;2023-04-15T21:16:23;4.28;;;2.95;;
42196;SDS011;27866;48.146;17.098;2023-04-15T21:20:34;4.38;;;3.05;;
42196;SDS011;27866;48.146;17.098;2023-04-15T21:24:45;3.28;;;2.42;;
42196;SDS011;27866;48.146;17.098;2023-04-15T21:28:58;3.90;;;2.65;;
42196;SDS011;27866;48.146;17.098;2023-04-15T21:33:09;4.20;;;2.83;;
42196;SDS011;27866;48.146;17.098;2023-04-15T21:37:21;4.80;;;2.65;;
42196;SDS011;27866;48.146;17.098;2023-04-15T21:41:32;4.60;;;3.13;;
42196;SDS011;27866;48.146;17.098;2023-04-15T21:45:43;5.75;;;3.65;;
42196;SDS011;27866;48.146;17.098;2023-04-15T21:49:54;5.68;;;3.83;;
42196;SDS011;27866;48.146;17.098;2023-04-15T21:54:05;6.50;;;3.67;;
42196;SDS011;27866;48.146;17.098;2023-04-15T21:58:17;6.20;;;4.10;;
42196;SDS011;27866;48.146;17.098;2023-04-15T22:02:28;6.03;;;4.28;;
42196;SDS011;27866;48.146;17.098;2023-04-15T22:06:39;8.75;;;4.93;;
42196;SDS011;27866;48.146;17.098;2023-04-15T22:10:51;8.13;;;4.75;;
42196;SDS011;27866;48.146;17.098;2023-04-15T22:15:02;6.53;;;4.88;;
42196;SDS011;27866;48.146;17.098;2023-04-15T22:19:14;10.18;;;6.25;;
42196;SDS011;27866;48.146;17.098;2023-04-15T22:23:25;16.33;;;7.65;;
42196;SDS011;27866;48.146;17.098;2023-04-15T22:27:36;12.65;;;7.53;;
42196;SDS011;27866;48.146;17.098;2023-04-15T22:31:48;21.25;;;10.68;;
42196;SDS011;27866;48.146;17.098;2023-04-15T22:35:59;22.70;;;11.75;;
42196;SDS011;27866;48.146;17.098;2023-04-15T22:40:10;28.92;;;15.07;;
42196;SDS011;27866;48.146;17.098;2023-04-15T22:44:22;20.20;;;11.00;;
42196;SDS011;27866;48.146;17.098;2023-04-15T22:48:33;27.38;;;13.38;;
42196;SDS011;27866;48.146;17.098;2023-04-15T22:52:44;14.32;;;8.93;;
42196;SDS011;27866;48.146;17.098;2023-04-15T22:56:57;15.30;;;8.55;;
42196;SDS011;27866;48.146;17.098;2023-04-15T23:01:08;11.52;;;6.95;;
42196;SDS011;27866;48.146;17.098;2023-04-15T23:05:20;7.78;;;4.93;;
42196;SDS011;27866;48.146;17.098;2023-04-15T23:09:31;7.65;;;4.63;;
42196;SDS011;27866;48.146;17.098;2023-04-15T23:13:43;6.25;;;4.47;;
42196;SDS011;27866;48.146;17.098;2023-04-15T23:17:54;6.50;;;4.45;;
42196;SDS011;27866;48.146;17.098;2023-04-15T23:22:05;6.43;;;4.35;;
42196;SDS011;27866;48.146;17.098;2023-04-15T23:26:19;6.18;;;4.50;;
42196;SDS011;27866;48.146;17.098;2023-04-15T23:30:30;5.68;;;4.35;;
42196;SDS011;27866;48.146;17.098;2023-04-15T23:34:42;6.97;;;4.35;;
42196;SDS011;27866;48.146;17.098;2023-04-15T23:38:53;6.25;;;4.50;;
42196;SDS011;27866;48.146;17.098;2023-04-15T23:43:04;7.05;;;4.80;;
42196;SDS011;27866;48.146;17.098;2023-04-15T23:47:16;7.57;;;5.00;;
42196;SDS011;27866;48.146;17.098;2023-04-15T23:51:27;9.40;;;5.38;;
42196;SDS011;27866;48.146;17.098;2023-04-15T23:55:39;9.25;;;6.30;;
42196;SDS011;27866;48.146;17.098;2023-04-15T23:59:50;9.73;;;6.82;;
